NCAR-RAP Real-Time Weather Data

Output produced by METARs form (21 May 2019  11:37 UTC)
found at http://weather.rap.ucar.edu/surface/
 
ROAH 211130Z 01015KT 9999 SCT032 22/14 Q1008 RMK 3CU032 A2979
ROAH 211100Z 01015KT 9999 SCT032 22/14 Q1008 RMK 4CU032 A2978
ROAH 211030Z 01015KT 9999 FEW035 22/14 Q1008 RMK 2CU035 A2977
ROAH 211000Z 01015KT 9999 FEW035 23/14 Q1008 RMK 1CU035 A2977
ROAH 210930Z 01016KT 9999 FEW035 23/14 Q1007 RMK 1CU035 A2976
ROAH 210900Z 36016KT 9999 FEW035 23/14 Q1007 RMK 1CU035 A2976
ROAH 210830Z 36018KT 9999 FEW030 23/15 Q1007 RMK 1CU030 A2975
ROAH 210800Z 01016KT 9999 FEW030 24/15 Q1007 RMK 1CU030 A2975
ROAH 210730Z 01017KT 340V040 9999 FEW030 24/15 Q1007 RMK 1CU030 A2974
ROAH 210700Z 36019KT 9999 FEW030 24/15 Q1007 RMK 1CU030 A2975
ROAH 210630Z 36019KT 9999 FEW030 24/15 Q1007 RMK 1CU030 A2975
ROAH 210600Z 36020KT 9999 FEW030 24/16 Q1007 RMK 1CU030 A2975
ROAH 210530Z 01018KT 9999 FEW030 24/16 Q1007 RMK 2CU030 A2976
ROAH 210500Z 36019KT 340V050 9999 FEW030 24/16 Q1008 RMK 2CU030 A2977
ROAH 210430Z 36018KT 9999 FEW030 24/15 Q1008 RMK 2CU030 A2977
ROAH 210400Z 36018KT 9999 FEW030 25/16 Q1008 RMK 2CU030 A2978
ROAH 210330Z 36018KT 340V090 9999 SCT030 24/16 Q1008 RMK 3CU030 A2979
ROAH 210300Z 36020KT 9999 FEW026 BKN030 24/16 Q1008 RMK 1CU026 5CU030 A2979
ROAH 210230Z 36020KT 9999 FEW026 SCT030 24/16 Q1008 RMK 1CU026 3CU030 A2979
ROAH 210200Z 36018KT 9999 BKN027 24/17 Q1008 RMK 5CU027 A2979
ROAH 210130Z 36019KT 9999 SCT027 24/15 Q1008 RMK 3CU027 A2978
ROAH 210100Z 36019KT 9999 FEW027 24/15 Q1008 RMK 2CU027 A2979
ROAH 210030Z 36020KT 9999 FEW027 23/15 Q1008 RMK 2CU027 A2979
ROAH 210000Z 36018KT 9999 FEW030 23/15 Q1008 RMK 2CU030 A2978
ROAH 202330Z 36020KT 9999 FEW030 23/15 Q1008 RMK 2CU030 A2977
ROAH 202300Z 36020KT 9999 FEW030 22/14 Q1008 RMK 2CU030 A2978
ROAH 202230Z 36020KT 9999 SCT030 22/15 Q1008 RMK 3CU030 A2978
ROAH 202200Z 35020KT 9999 SCT030 22/14 Q1008 RMK 3CU030 A2977
ROAH 202130Z 35018KT 9999 SCT030 22/15 Q1008 RMK 3CU030 A2977
ROAH 202100Z 35019KT 9999 FEW030 22/15 Q1007 RMK 1CU030 A2976
ROAH 202030Z 36019KT 9999 FEW030 22/16 Q1007 RMK 1CU030 A2975
ROAH 202000Z 36019KT 9999 FEW030 22/16 Q1007 RMK 1CU030 A2974
ROAH 201930Z 36019KT 9999 FEW030 22/15 Q1007 RMK 2CU030 A2974
ROAH 201900Z 35020KT 9999 FEW030 22/16 Q1007 RMK 2CU030 A2974
ROAH 201830Z 36019KT 9999 FEW030 BKN090 22/15 Q1007 RMK 1CU030 6AC090 A2974
ROAH 201800Z 35019KT 9999 FEW030 23/15 Q1007 RMK 2CU030 A2974
ROAH 201730Z 36019KT 9999 SCT030 23/16 Q1007 RMK 3CU030 A2974
ROAH 201700Z 36018KT 9999 SCT028 23/16 Q1007 RMK 3CU028 A2974
ROAH 201630Z 36021KT 9999 FEW023 SCT028 23/17 Q1007 RMK 1CU023 4CU028 A2974
ROAH 201600Z 36020KT 9999 FEW020 SCT025 23/18 Q1007 RMK 2CU020 4CU025 A2974
ROAH 201530Z 36019KT 9999 FEW020 BKN025 23/18 Q1007 RMK 2CU020 5CU025 A2974
ROAH 201500Z 35020KT 9999 FEW022 BKN025 23/19 Q1007 RMK 2CU022 6CU025 A2974
ROAH 201430Z 36019KT 9999 FEW020 BKN023 23/19 Q1007 RMK 2CU020 6CU023 A2974
ROAH 201400Z 35020KT 9999 FEW015 BKN020 23/19 Q1007 RMK 2CU015 6CU020 A2974
ROAH 201330Z 35020KT 9999 SCT015 BKN020 24/20 Q1007 RMK 3CU015 6CU020 A2974
ROAH 201300Z 35021KT 9999 SCT015 BKN020 24/21 Q1006 RMK 3CU015 6CU020 A2972
ROAH 201230Z 35021KT 9999 SCT015 BKN020 24/21 Q1006 RMK 3CU015 6CU020 A2972
ROAH 201200Z 35020KT 9999 SCT015 BKN020 24/21 Q1006 RMK 3CU015 6CU020 A2971
ROAH 201130Z 34021KT 9999 SCT015 BKN020 24/21 Q1006 RMK 4CU015 6CU020 A2971
ROAH 201100Z 35020KT 9999 SCT015 BKN020 BKN040 24/21 Q1006 RMK 4CU015 5CU020 7SC040 A2971
ROAH 201030Z 35018KT 9999 SCT015 BKN020 BKN040 24/21 Q1005 RMK 4CU015 5CU020 7SC040 A2970
ROAH 201000Z 34019KT 9999 -SHRA SCT010 BKN020 BKN040 24/22 Q1005 RMK 3CU010 5CU020 7SC040 A2969
ROAH 200930Z 34019KT 7000 -SHRA SCT005 BKN015 BKN040 24/23 Q1005 RMK 3ST005 5CU015 7SC040 A2968
ROAH 200908Z 34017KT 9999 -SHRA SCT005 BKN010 BKN020 24/23 Q1004 RMK 3ST005 6CU010 7CU020 A2967
ROAH 200900Z 33017KT 3000 SHRA SCT005 BKN010 BKN020 24/23 Q1004 RMK 3ST005 6CU010 7CU020 A2967
ROAH 200830Z 30012KT 1000 R36/0900VP1800D +SHRA SCT005 BKN010 BKN020 24/23 Q1004
ROAH 200824Z 29010KT 2000 SHRA SCT010 BKN020 BKN060 25/24 Q1004 RMK 3CU010 6CU020 7SC060 A2966
ROAH 200800Z 31009KT 9999 -SHRA SCT010 BKN025 BKN060 26/25 Q1004 RMK 3CU010 6CU025 7SC060 A2965 4000S-W
ROAH 200730Z 29008KT 270V330 9999 -SHRA FEW010 BKN025 BKN060 26/24 Q1004 RMK 2CU010 6CU025 7SC060 A2965
ROAH 200700Z 28008KT 9999 FEW010 SCT060 BKN100 27/24 Q1004 RMK 2CU010 3SC060 6AC100 A2966
ROAH 200630Z 26008KT 230V300 9999 FEW007 SCT060 BKN150 27/25 Q1004 RMK 1ST007 4SC060 6AC150 A2966
ROAH 200600Z 24007KT 120V280 9999 FEW007 SCT060 BKN150 26/25 Q1004 RMK 1ST007 4SC060 6AC150 A2966
ROAH 200530Z 21006KT 9999 FEW007 BKN060 BKN150 26/24 Q1004 RMK 1ST007 5SC060 6AC150 A2966
ROAH 200500Z 22008KT 9999 FEW005 SCT040 BKN150 26/25 Q1004 RMK 2ST005 3SC040 7AC150 A2966
ROAH 200430Z 22007KT 130V250 9999 -RA FEW005 SCT040 BKN150 26/24 Q1004 RMK 2ST005 3SC040 7AC150 A2966
ROAH 200400Z 21006KT 170V290 9999 FEW007 SCT030 BKN150 26/25 Q1005 RMK 1ST007 3CU030 7AC150 A2968
ROAH 200330Z 22007KT 9999 -RA FEW007 SCT050 BKN060 25/24 Q1005 RMK 1ST007 4SC050 7AC060 A2969
ROAH 200300Z 22008KT 9999 -RA FEW007 SCT045 BKN060 25/24 Q1005 RMK 1ST007 4SC045 7AC060 A2969
ROAH 200230Z 22007KT 170V270 9999 SHRA FEW005 SCT030 BKN080 25/24 Q1006 RMK 1ST005 4CU030 7AC080 A2971
ROAH 200200Z 22007KT 9999 -RA BKN008 BKN090 25/24 Q1006 RMK 6CU008 7AC090 A2971
ROAH 200130Z 21005KT 160V270 9999 -RA FEW007 BKN009 BKN090 25/23 Q1005 RMK 1ST007 6CU009 7AC090 A2970
ROAH 200100Z 19003KT 130V240 9999 -RA FEW008 BKN012 BKN090 25/24 Q1005 RMK 1ST008 6CU012 7AC090 A2969
ROAH 200030Z 14006KT 9999 -RA FEW010 SCT070 BKN090 25/24 Q1005 RMK 1CU010 3AC070 7AC090 A2969
ROAH 200000Z 13004KT 8000 -RA FEW010 SCT060 BKN090 24/23 Q1005 RMK 1CU010 3SC060 7AC090 A2969
ROAH 192338Z 06007KT 040V100 6000 TSRA FEW010 SCT015 FEW020CB BKN050 24/23 Q1005 RMK 1CU010 3CU015 2CB020 5SC050 A2970 FBL TS 20KM E AND S MOV E
ROAH 192330Z 04009G19KT 010V070 4000 TSRA FEW006 SCT015 FEW020CB BKN050 23/22 Q1005 RMK 1ST006 3CU015 2CB020 6SC050 A2970 FBL TS 15KM E AND S MOV E
ROAH 192311Z 35012KT 4000 TSRA FEW004 BKN010 SCT020CB BKN050 23/22 Q1006 RMK 1ST004 5CU010 3CB020 6SC050 A2972 MOD TS OHD MOV E
ROAH 192300Z 34011G21KT 260V050 3000 R18/0550V1500U +TSRA FEW004 BKN010 SCT020CB BKN045 24/22 Q1006
ROAH 192230Z 16007KT 6000 TSRA FEW006 FEW020CB SCT045 BKN140 27/25 Q1005 RMK 1ST006 2CB020 3SC045 5AC140 A2968 FBL TS 20KM W MOV E
ROAH 192200Z 17009KT 9999 TSRA FEW006 FEW020CB SCT050 BKN140 27/25 Q1005 RMK 1ST006 2CB020 3SC050 5AC140 A2969 FBL TS 20KM NW MOV E
ROAH 192130Z 17009KT 9999 VCSH FEW006 SCT050 BKN/// 27/25 Q1005
ROAH 192100Z 17008KT 9999 VCSH FEW005 SCT140 BKN/// 26/25 Q1005
ROAH 192030Z 17009KT 9999 VCSH FEW004 SCT080 BKN/// 26/25 Q1005
ROAH 192000Z 17009KT 9999 SCT005 BKN/// 26/25 Q1005 RMK 4ST005 A2968 LIGHTNING NW
ROAH 191930Z 17008KT 9999 FEW004 SCT140 BKN/// 26/25 Q1004
ROAH 191900Z 17008KT 9999 SCT004 BKN/// 27/25 Q1005
ROAH 191830Z 18008KT 9999 FEW005 BKN090 BKN/// 26/25 Q1005 RMK 2ST005 5AC090 A2969
ROAH 191818Z 18008KT 9999 FEW005 SCT007 BKN090 26/25 Q1005 RMK 1ST005 3ST007 5AC090 A2969
ROAH 191800Z 18008KT 9999 FEW005 SCT006 BKN007 27/25 Q1005 RMK 1ST005 3ST006 5ST007 A2970
ROAH 191730Z 15006KT 9999 -RA FEW009 SCT090 BKN150 27/25 Q1006 RMK 1CU009 4AC090 7AC150 A2971
ROAH 191700Z 16005KT 9999 -RA FEW010 BKN150 27/25 Q1006 RMK 1CU010 7AC150 A2973
ROAH 191630Z 14006KT 9999 VCSH NSC 27/25 Q1007 RMK 1SC050 6AC090 7AC180 A2974
ROAH 191600Z 14007KT 9999 VCSH FEW040 BKN180 27/25 Q1007 RMK 1SC040 7AC180 A2975
ROAH 191530Z 14007KT 9999 VCSH FEW010 BKN200 27/25 Q1007 RMK 1CU010 7AC200 A2974
ROAH 191500Z 12004KT 080V150 9999 FEW020 SCT030 BKN/// 27/25 Q1008 RMK 1CU020 3CU030 A2977
ROAH 191430Z 14004KT 100V160 9999 VCSH FEW025 SCT050 BKN130 27/25 Q1008 RMK 1CU025 3SC050 7AC130 A2978
ROAH 191400Z 17004KT 9999 VCSH FEW025 SCT045 BKN130 28/24 Q1008 RMK 1CU025 4SC045 7AC130 A2979
ROAH 191330Z 19002KT 9999 VCSH FEW035 SCT050 BKN120 27/24 Q1008 RMK 1SC035 3SC050 7AC120 A2979
ROAH 191300Z 20003KT 9999 VCSH FEW040 SCT050 BKN130 27/24 Q1008 RMK 1SC040 4SC050 7AC130 A2979
ROAH 191230Z 19002KT 9999 FEW045 SCT050 BKN130 27/24 Q1008 RMK 1SC045 3SC050 7AC130 A2979
ROAH 191200Z 20004KT 160V260 9999 FEW045 SCT070 BKN140 28/24 Q1008 RMK 1SC045 3AC070 7AC140 A2978
ROAH 191130Z 23004KT 9999 FEW034 SCT070 BKN140 28/24 Q1008 RMK 1SC034 3AC070 7AC140 A2977
ROAH 191100Z 22003KT 160V260 9999 FEW040 SCT070 BKN140 27/24 Q1007 RMK 1SC040 3AC070 7AC140 A2976
ROAH 191030Z VRB02KT 9999 FEW045 BKN070 BKN130 27/24 Q1007 RMK 1SC045 5AC070 7AC130 A2976
ROAH 191000Z 21004KT 170V250 9999 FEW045 SCT070 BKN130 27/24 Q1007 RMK 1SC045 4AC070 7AC130 A2976
ROAH 190930Z 20003KT 150V310 9999 FEW015 SCT060 BKN130 27/24 Q1007 RMK 1CU015 3SC060 7AC130 A2975
ROAH 190900Z 20005KT 170V230 9999 FEW015 SCT130 BKN/// 27/24 Q1007
ROAH 190830Z 20004KT 9999 FEW015 SCT/// 27/24 Q1007
ROAH 190800Z 22004KT 9999 SCT045 28/25 Q1006 RMK 4SC045 A2973
ROAH 190730Z 23006KT 9999 FEW015 SCT045 28/24 Q1006 RMK 2CU015 3SC045 A2973
ROAH 190700Z 21004KT 150V320 9999 FEW015 SCT/// 28/24 Q1006 RMK 2CU015 A2972
ROAH 190630Z 26005KT 180V320 9999 FEW015 SCT/// 29/25 Q1006
ROAH 190600Z 26005KT 210V360 9999 FEW015 SCT/// 29/24 Q1006
ROAH 190530Z 30006KT 220V360 9999 FEW015 SCT/// 28/24 Q1007
ROAH 190500Z 30006KT 250V350 9999 FEW015 SCT/// 29/24 Q1007
ROAH 190430Z 29005KT 240V350 9999 FEW015 SCT/// 28/24 Q1007 RMK 2CU015 A2974
ROAH 190400Z 33006KT 280V010 9999 FEW012 28/24 Q1008 RMK 1CU012 A2977
ROAH 190330Z 34005KT 280V030 9999 FEW012 28/24 Q1008 RMK 1CU012 A2977
ROAH 190300Z 34006KT 290V040 9999 FEW012 29/25 Q1008 RMK 1CU012 A2977
ROAH 190230Z 35005KT 300V030 9999 FEW012 SCT130 28/24 Q1008 RMK 1CU012 4AC130 A2977
ROAH 190200Z 33006KT 9999 FEW012 SCT130 28/24 Q1008 RMK 1CU012 4AC130 A2977
ROAH 190130Z 34004KT 300V030 9999 FEW015 28/24 Q1008 RMK 1CU015 A2977
ROAH 190100Z 35008KT 9999 FEW015 28/25 Q1008 RMK 1CU015 A2977
ROAH 190030Z 34008KT 9999 FEW015 27/24 Q1008 RMK 1CU015 A2978
ROAH 190000Z 34009KT 9999 FEW015 27/24 Q1008 RMK 1CU015 A2977